Time;durP1;ratioP1;P1;durP2;ratioP2;P2;SDS_P1;SDS_P2;PMS_P1;PMS_P2;Temp;Humidity;BMP_temperature;BMP_pressure;BME280_temperature;BME280_humidity;BME280_pressure;Samples;Min_cycle;Max_cycle;Signal;HPM_P1;HPM_P2
2021/07/08 00:01:44;;;;;;;1.35;0.80;;;26.30;47.40;;;-147.20;100.00;58430.41;5112983;28;20048;-52
2021/07/08 00:04:11;;;;;;;0.90;0.70;;;26.30;47.50;;;-147.20;100.00;58430.41;5114125;28;20453;-52
2021/07/08 00:06:38;;;;;;;0.60;0.60;;;26.30;47.50;;;-147.20;100.00;58430.41;5114608;28;20039;-50
2021/07/08 00:09:06;;;;;;;0.60;0.60;;;26.30;47.60;;;-147.20;100.00;58430.41;5114083;28;20044;-53
2021/07/08 00:11:32;;;;;;;1.23;0.55;;;26.30;47.50;;;-147.20;100.00;58430.41;5114125;28;20040;-52
2021/07/08 00:13:59;;;;;;;1.23;0.70;;;26.30;47.50;;;-147.20;100.00;58430.41;5114014;28;20046;-47
2021/07/08 00:16:26;;;;;;;0.63;0.63;;;26.30;47.50;;;-147.20;100.00;58430.41;5112448;28;20079;-53
2021/07/08 00:18:53;;;;;;;0.68;0.60;;;26.30;47.70;;;-147.20;100.00;58430.41;5114168;28;20040;-52
2021/07/08 00:21:20;;;;;;;0.60;0.60;;;26.20;47.50;;;-147.20;100.00;58430.41;5113910;28;20108;-50
2021/07/08 00:23:46;;;;;;;1.00;0.82;;;26.20;47.50;;;-147.20;100.00;58430.41;5113851;28;20047;-49
2021/07/08 00:26:12;;;;;;;0.70;0.57;;;26.20;47.60;;;-147.20;100.00;58430.41;5113786;28;20048;-48
2021/07/08 00:28:37;;;;;;;0.55;0.55;;;26.30;47.70;;;-147.20;100.00;58430.41;5114178;28;20514;-52
2021/07/08 00:31:03;;;;;;;0.50;0.50;;;26.20;47.60;;;-147.20;100.00;58430.41;5114095;28;20104;-54
2021/07/08 00:33:29;;;;;;;0.95;0.70;;;26.20;47.60;;;-147.20;100.00;58430.41;5078436;28;20044;-53
2021/07/08 00:35:55;;;;;;;0.73;0.70;;;26.20;47.70;;;-147.20;100.00;58430.41;5113459;28;20044;-53
2021/07/08 00:38:20;;;;;;;0.68;0.60;;;26.20;47.70;;;-147.20;100.00;58430.41;5113643;28;20066;-51
2021/07/08 00:40:47;;;;;;;0.70;0.70;;;26.20;47.70;;;-147.20;100.00;58430.41;5113669;28;20044;-55
2021/07/08 00:43:13;;;;;;;1.33;0.70;;;26.20;47.70;;;-147.20;100.00;58430.41;5113574;28;20050;-54
2021/07/08 00:45:39;;;;;;;0.60;0.60;;;26.20;47.80;;;-147.20;100.00;58430.41;5113615;28;20134;-49
2021/07/08 00:48:06;;;;;;;0.80;0.80;;;26.20;47.80;;;-147.20;100.00;58430.41;5113825;28;20039;-53
2021/07/08 00:50:46;;;;;;;0.55;0.50;;;26.10;47.70;;;-147.20;100.00;58430.41;5113766;28;20081;-51
2021/07/08 00:53:17;;;;;;;1.27;0.80;;;26.10;47.80;;;-147.20;100.00;58430.41;5113797;28;20047;-49
2021/07/08 00:55:57;;;;;;;0.70;0.70;;;26.10;47.80;;;-147.20;100.00;58430.41;5113693;28;20058;-50
2021/07/08 00:58:23;;;;;;;0.50;0.50;;;26.10;47.80;;;-147.20;100.00;58430.41;5095443;28;20157;-51
2021/07/08 01:00:49;;;;;;;0.80;0.60;;;26.10;47.80;;;-147.20;100.00;58430.41;5113304;28;20131;-51
2021/07/08 01:03:16;;;;;;;1.63;0.50;;;26.10;47.80;;;-147.20;100.00;58430.41;5113304;28;20053;-54
2021/07/08 01:05:47;;;;;;;1.17;0.65;;;26.10;47.80;;;-147.20;100.00;58430.41;5113263;28;20495;-49
2021/07/08 01:08:13;;;;;;;0.68;0.68;;;26.10;47.90;;;-147.20;100.00;58430.41;5113629;28;20059;-50
2021/07/08 01:10:40;;;;;;;0.50;0.50;;;26.00;47.80;;;-147.20;100.00;58430.41;5094780;28;20428;-52
2021/07/08 01:13:06;;;;;;;0.75;0.70;;;26.00;47.90;;;-147.20;100.00;58430.41;5112647;28;20368;-52
2021/07/08 01:15:32;;;;;;;0.60;0.60;;;26.00;47.80;;;-147.20;100.00;58430.41;5113085;28;20054;-50
2021/07/08 01:17:59;;;;;;;0.70;0.70;;;26.00;47.90;;;-147.20;100.00;58430.41;5113106;28;20134;-50
2021/07/08 01:20:28;;;;;;;0.50;0.50;;;26.00;47.90;;;-147.20;100.00;58430.41;5113361;28;20051;-50
2021/07/08 01:22:58;;;;;;;0.50;0.50;;;26.00;48.00;;;-147.20;100.00;58430.41;5113008;28;20487;-50
2021/07/08 01:25:38;;;;;;;1.85;0.75;;;26.00;47.90;;;-147.20;100.00;58430.41;5113007;28;20063;-53
2021/07/08 01:28:06;;;;;;;0.60;0.60;;;26.00;48.50;;;-147.20;100.00;58430.41;5113011;28;20487;-52
2021/07/08 01:30:33;;;;;;;0.80;0.80;;;26.00;48.00;;;-147.20;100.00;58430.41;5094553;28;20475;-53
2021/07/08 01:33:03;;;;;;;0.73;0.73;;;26.00;48.00;;;-147.20;100.00;58430.41;5112912;28;20490;-52
2021/07/08 01:35:29;;;;;;;0.95;0.73;;;26.00;48.00;;;-147.20;100.00;58430.41;5113596;28;20198;-52
2021/07/08 01:37:54;;;;;;;0.70;0.70;;;26.00;48.00;;;-147.20;100.00;58430.41;5113265;28;20173;-51
2021/07/08 01:40:21;;;;;;;0.68;0.68;;;26.00;48.10;;;-147.20;100.00;58430.41;5113337;28;20492;-49
2021/07/08 01:42:50;;;;;;;0.60;0.60;;;26.00;48.10;;;-147.20;100.00;58430.41;5112688;28;20407;-50
2021/07/08 01:45:18;;;;;;;0.52;0.52;;;26.00;48.10;;;-147.20;100.00;58430.41;5112977;28;20050;-54
2021/07/08 01:47:45;;;;;;;0.70;0.70;;;26.00;48.10;;;-147.20;100.00;58430.41;5112107;28;20048;-49
2021/07/08 01:50:14;;;;;;;1.30;0.73;;;25.90;48.10;;;-147.20;100.00;58430.41;5112653;28;20054;-47
2021/07/08 01:52:41;;;;;;;0.68;0.60;;;25.90;48.60;;;-147.20;100.00;58430.41;5112545;28;20429;-52
2021/07/08 01:55:07;;;;;;;0.68;0.68;;;25.90;48.10;;;-147.20;100.00;58430.41;5112533;28;20139;-48
2021/07/08 01:57:33;;;;;;;0.60;0.60;;;25.90;48.10;;;-147.20;100.00;58430.41;5112369;28;20044;-52
2021/07/08 01:59:59;;;;;;;0.50;0.50;;;25.90;48.10;;;-147.20;100.00;58430.41;5112451;28;20070;-52
2021/07/08 02:02:25;;;;;;;1.17;0.65;;;25.90;48.10;;;-147.20;100.00;58430.41;5113066;28;20372;-51
2021/07/08 02:04:51;;;;;;;0.60;0.60;;;25.90;48.20;;;-147.20;100.00;58430.41;5112365;28;20065;-52
2021/07/08 02:07:16;;;;;;;0.40;0.40;;;25.90;48.20;;;-147.20;100.00;58430.41;5092898;28;20044;-51
2021/07/08 02:09:42;;;;;;;0.95;0.60;;;25.90;48.20;;;-147.20;100.00;58430.41;5112315;28;20058;-55
2021/07/08 02:12:10;;;;;;;0.68;0.68;;;25.90;48.20;;;-147.20;100.00;58430.41;5112380;28;20052;-51
2021/07/08 02:14:36;;;;;;;0.85;0.57;;;25.80;48.20;;;-147.20;100.00;58430.41;5112395;28;20131;-50
2021/07/08 02:17:02;;;;;;;0.95;0.70;;;25.80;48.20;;;-147.20;100.00;58430.41;5112266;28;20138;-52
2021/07/08 02:19:28;;;;;;;0.65;0.65;;;25.80;48.20;;;-147.20;100.00;58430.41;5112140;28;20054;-53
2021/07/08 02:21:54;;;;;;;0.95;0.65;;;25.90;48.30;;;-147.20;100.00;58430.41;5112195;28;20043;-53
2021/07/08 02:24:19;;;;;;;0.73;0.70;;;25.90;48.40;;;-147.20;100.00;58430.41;5112626;28;20100;-51
2021/07/08 02:26:45;;;;;;;0.80;0.57;;;25.80;48.30;;;-147.20;100.00;58430.41;5115161;28;20066;-51
2021/07/08 02:29:11;;;;;;;1.05;0.60;;;25.80;48.30;;;-147.20;100.00;58430.41;5115688;28;20134;-52
2021/07/08 02:31:37;;;;;;;0.68;0.68;;;25.80;48.30;;;-147.20;100.00;58430.41;5116059;28;20040;-53
2021/07/08 02:34:04;;;;;;;0.77;0.63;;;25.80;48.30;;;-147.20;100.00;58430.41;5115888;28;20078;-49
2021/07/08 02:36:30;;;;;;;0.70;0.70;;;25.80;48.40;;;-147.20;100.00;58430.41;5115696;28;20479;-51
2021/07/08 02:38:55;;;;;;;0.70;0.70;;;25.80;48.40;;;-147.20;100.00;58430.41;5115850;28;20130;-53
2021/07/08 02:41:21;;;;;;;0.60;0.60;;;25.80;48.40;;;-147.20;100.00;58430.41;5115826;28;20097;-52
2021/07/08 02:43:47;;;;;;;0.73;0.73;;;25.80;48.40;;;-147.20;100.00;58430.41;5097051;28;20039;-51
2021/07/08 02:46:13;;;;;;;0.90;0.70;;;25.80;48.40;;;-147.20;100.00;58430.41;5114931;28;20066;-51
2021/07/08 02:48:39;;;;;;;0.65;0.60;;;25.80;48.40;;;-147.20;100.00;58430.41;5115736;28;20134;-51
2021/07/08 02:51:05;;;;;;;0.75;0.60;;;25.80;48.50;;;-147.20;100.00;58430.41;5115255;28;20046;-48
2021/07/08 02:53:30;;;;;;;1.33;0.70;;;25.70;48.40;;;-147.20;100.00;58430.41;5115352;28;20411;-47
2021/07/08 02:55:56;;;;;;;0.77;0.70;;;25.70;48.40;;;-147.20;100.00;58430.41;5115549;28;20130;-49
2021/07/08 02:58:22;;;;;;;0.68;0.68;;;25.80;48.50;;;-147.20;100.00;58430.41;5115024;28;20040;-53
2021/07/08 03:00:48;;;;;;;0.60;0.60;;;25.70;48.50;;;-147.20;100.00;58430.41;5115567;28;20365;-52
2021/07/08 03:03:16;;;;;;;0.60;0.60;;;25.70;48.40;;;-147.20;100.00;58430.41;5115052;28;20069;-51
2021/07/08 03:05:41;;;;;;;0.50;0.50;;;25.70;48.50;;;-147.20;100.00;58430.41;5115187;28;20061;-48
2021/07/08 03:08:07;;;;;;;0.73;0.73;;;25.70;48.50;;;-147.20;100.00;58430.41;5096857;28;20055;-52
2021/07/08 03:10:33;;;;;;;0.88;0.80;;;25.70;48.50;;;-147.20;100.00;58430.41;5114895;28;20048;-46
2021/07/08 03:13:00;;;;;;;0.60;0.60;;;25.70;48.50;;;-147.20;100.00;58430.41;5115017;28;20048;-49
2021/07/08 03:15:26;;;;;;;0.60;0.60;;;25.70;48.50;;;-147.20;100.00;58430.41;5095110;28;20101;-50
2021/07/08 03:17:54;;;;;;;0.98;0.88;;;25.70;48.50;;;-147.20;100.00;58430.41;5114762;28;20057;-51
2021/07/08 03:20:27;;;;;;;1.17;0.80;;;25.70;48.50;;;-147.20;100.00;58430.41;5114863;28;20048;-47
2021/07/08 03:22:55;;;;;;;0.70;0.70;;;25.70;48.60;;;-147.20;100.00;58430.41;5115382;28;20051;-50
2021/07/08 03:25:22;;;;;;;0.73;0.60;;;25.70;48.60;;;-147.20;100.00;58430.41;5114838;28;20051;-49
2021/07/08 03:27:51;;;;;;;0.88;0.50;;;25.70;48.60;;;-147.20;100.00;58430.41;5113314;28;20051;-50
2021/07/08 03:30:20;;;;;;;0.40;0.40;;;25.70;48.50;;;-147.20;100.00;58430.41;5114716;28;20050;-48
2021/07/08 03:32:48;;;;;;;0.60;0.60;;;25.70;48.50;;;-147.20;100.00;58430.41;5114602;28;20506;-48
2021/07/08 03:35:14;;;;;;;0.60;0.60;;;25.70;48.50;;;-147.20;100.00;58430.41;5114560;28;20043;-50
2021/07/08 03:37:41;;;;;;;0.57;0.50;;;25.70;48.40;;;-147.20;100.00;58430.41;5114286;28;20048;-48
2021/07/08 03:40:09;;;;;;;0.60;0.60;;;25.70;48.50;;;-147.20;100.00;58430.41;5114163;28;20134;-50
2021/07/08 03:42:36;;;;;;;0.70;0.60;;;25.70;48.40;;;-147.20;100.00;58430.41;5115097;28;20130;-50
2021/07/08 03:45:07;;;;;;;0.88;0.70;;;25.70;48.50;;;-147.20;100.00;58430.41;5114218;28;20086;-50
2021/07/08 03:47:33;;;;;;;0.60;0.60;;;25.70;48.50;;;-147.20;100.00;58430.41;5114731;28;20056;-48
2021/07/08 03:49:59;;;;;;;0.60;0.60;;;25.70;48.50;;;-147.20;100.00;58430.41;5114403;28;20062;-50
2021/07/08 03:52:25;;;;;;;0.50;0.50;;;25.70;48.50;;;-147.20;100.00;58430.41;5111596;28;20135;-52
2021/07/08 03:58:51;;;;;;;0.70;0.70;;;25.70;48.50;;;-147.20;100.00;58430.41;5114370;28;20411;-53
2021/07/08 04:01:16;;;;;;;0.95;0.52;;;25.70;48.50;;;-147.20;100.00;58430.41;5114216;28;20048;-52
2021/07/08 04:03:42;;;;;;;0.85;0.60;;;25.70;48.50;;;-147.20;100.00;58430.41;5114263;28;20528;-51
2021/07/08 04:06:08;;;;;;;0.77;0.77;;;25.70;48.50;;;-147.20;100.00;58430.41;5114058;28;20040;-50
2021/07/08 04:08:34;;;;;;;1.38;0.70;;;25.70;48.50;;;-147.20;100.00;58430.41;5114122;28;20050;-48
2021/07/08 04:11:00;;;;;;;0.80;0.70;;;25.70;48.50;;;-147.20;100.00;58430.41;5114060;28;20085;-50
2021/07/08 04:13:27;;;;;;;1.13;0.88;;;25.70;48.60;;;-147.20;100.00;58430.41;5114039;28;20368;-48
2021/07/08 04:15:53;;;;;;;0.63;0.60;;;25.70;48.60;;;-147.20;100.00;58430.41;5114117;28;20390;-47
2021/07/08 04:18:20;;;;;;;0.70;0.70;;;25.60;48.50;;;-147.20;100.00;58430.41;5114001;28;20483;-47
2021/07/08 04:20:46;;;;;;;0.75;0.75;;;25.70;48.60;;;-147.20;100.00;58430.41;5095962;28;20059;-51
2021/07/08 04:23:14;;;;;;;0.70;0.70;;;25.70;48.60;;;-147.20;100.00;58430.41;5078793;28;20056;-53
2021/07/08 04:25:41;;;;;;;0.52;0.52;;;25.60;48.50;;;-147.20;100.00;58430.41;5113757;28;20058;-48
2021/07/08 04:28:10;;;;;;;0.60;0.60;;;25.70;48.60;;;-147.20;100.00;58430.41;5113781;28;20077;-53
2021/07/08 04:30:37;;;;;;;0.60;0.60;;;25.70;48.60;;;-147.20;100.00;58430.41;5113745;28;20058;-49
2021/07/08 04:33:04;;;;;;;0.70;0.70;;;25.70;48.60;;;-147.20;100.00;58430.41;5094494;28;20050;-49
2021/07/08 04:35:36;;;;;;;0.82;0.43;;;25.70;48.60;;;-147.20;100.00;58430.41;5113573;28;20072;-47
2021/07/08 04:38:03;;;;;;;0.77;0.77;;;25.70;48.60;;;-147.20;100.00;58430.41;5113536;28;20044;-46
2021/07/08 04:40:29;;;;;;;1.20;0.70;;;25.70;48.60;;;-147.20;100.00;58430.41;5113504;28;20130;-50
2021/07/08 04:42:55;;;;;;;0.80;0.80;;;25.70;48.60;;;-147.20;100.00;58430.41;5113798;28;20051;-49
2021/07/08 04:45:23;;;;;;;0.60;0.60;;;25.70;48.60;;;-147.20;100.00;58430.41;5113504;28;20051;-49
2021/07/08 04:47:50;;;;;;;0.60;0.60;;;25.70;48.60;;;-147.20;100.00;58430.41;5112840;28;20051;-51
2021/07/08 04:50:22;;;;;;;0.85;0.85;;;25.70;48.60;;;-147.20;100.00;58430.41;5113529;28;20514;-46
2021/07/08 04:52:49;;;;;;;0.70;0.70;;;25.70;48.60;;;-147.20;100.00;58430.41;5113814;28;20039;-48
2021/07/08 04:55:17;;;;;;;0.95;0.82;;;25.70;48.50;;;-147.20;100.00;58430.41;5113428;28;20088;-50
2021/07/08 04:57:45;;;;;;;0.80;0.68;;;25.70;48.50;;;-147.20;100.00;58430.41;5094713;28;20139;-47
2021/07/08 05:00:13;;;;;;;0.50;0.50;;;25.70;48.50;;;-147.20;100.00;58430.41;5112910;28;20051;-50
2021/07/08 05:02:41;;;;;;;0.95;0.80;;;25.70;48.40;;;-147.20;100.00;58430.41;5112855;28;20469;-47
2021/07/08 05:05:08;;;;;;;0.73;0.50;;;25.70;48.50;;;-147.20;100.00;58430.41;5112660;28;20134;-53
2021/07/08 05:07:34;;;;;;;0.68;0.60;;;25.70;48.50;;;-147.20;100.00;58430.41;5112912;28;20071;-49
2021/07/08 05:10:01;;;;;;;0.55;0.55;;;25.70;48.50;;;-147.20;100.00;58430.41;5113028;28;20074;-47
2021/07/08 05:12:27;;;;;;;0.50;0.50;;;25.70;48.50;;;-147.20;100.00;58430.41;5113123;28;20491;-48
2021/07/08 05:14:53;;;;;;;0.60;0.60;;;25.70;48.50;;;-147.20;100.00;58430.41;5113054;28;20043;-47
2021/07/08 05:17:19;;;;;;;0.60;0.60;;;25.70;48.50;;;-147.20;100.00;58430.41;5113297;28;20406;-49
2021/07/08 05:19:45;;;;;;;0.70;0.70;;;25.70;48.50;;;-147.20;100.00;58430.41;5112943;28;20051;-50
2021/07/08 05:22:11;;;;;;;0.98;0.80;;;25.70;48.50;;;-147.20;100.00;58430.41;5112905;28;20070;-54
2021/07/08 05:24:39;;;;;;;0.70;0.70;;;25.70;48.50;;;-147.20;100.00;58430.41;5112916;28;20043;-49
2021/07/08 05:27:05;;;;;;;0.98;0.50;;;25.70;48.50;;;-147.20;100.00;58430.41;5113417;28;20055;-46
2021/07/08 05:29:31;;;;;;;0.63;0.50;;;25.70;48.50;;;-147.20;100.00;58430.41;5112888;28;20067;-47
2021/07/08 05:31:57;;;;;;;0.57;0.57;;;25.70;48.50;;;-147.20;100.00;58430.41;5113162;28;20142;-46
2021/07/08 05:34:23;;;;;;;0.60;0.52;;;25.70;48.50;;;-147.20;100.00;58430.41;5112732;28;20078;-51
2021/07/08 05:36:48;;;;;;;0.85;0.85;;;25.70;48.50;;;-147.20;100.00;58430.41;5112447;28;20055;-51
2021/07/08 05:39:14;;;;;;;0.60;0.60;;;25.80;48.50;;;-147.20;100.00;58430.41;5112671;28;20069;-47
2021/07/08 05:41:40;;;;;;;0.57;0.57;;;25.80;48.50;;;-147.20;100.00;58430.41;5112578;28;20384;-50
2021/07/08 05:44:06;;;;;;;0.75;0.75;;;25.80;48.40;;;-147.20;100.00;58430.41;5112593;28;20100;-47
2021/07/08 05:46:33;;;;;;;0.70;0.60;;;25.80;48.40;;;-147.20;100.00;58430.41;5113045;28;20052;-51
2021/07/08 05:48:59;;;;;;;0.80;0.80;;;25.80;48.40;;;-147.20;100.00;58430.41;5112639;28;20054;-50
2021/07/08 05:51:25;;;;;;;0.60;0.60;;;25.80;48.30;;;-147.20;100.00;58430.41;5112560;28;20384;-49
2021/07/08 05:53:53;;;;;;;0.60;0.60;;;25.90;48.30;;;-147.20;100.00;58430.41;5112878;28;20050;-50
2021/07/08 05:56:19;;;;;;;0.55;0.55;;;25.90;48.30;;;-147.20;100.00;58430.41;5094558;28;20048;-46
2021/07/08 05:58:44;;;;;;;0.68;0.68;;;25.90;48.20;;;-147.20;100.00;58430.41;5112404;28;20177;-48
2021/07/08 06:01:10;;;;;;;0.50;0.50;;;25.90;48.10;;;-147.20;100.00;58430.41;5114876;28;20051;-50
2021/07/08 06:03:36;;;;;;;0.60;0.60;;;25.90;48.20;;;-147.20;100.00;58430.41;5116270;28;20429;-46
2021/07/08 06:06:02;;;;;;;0.60;0.60;;;25.90;48.10;;;-147.20;100.00;58430.41;5116093;28;20054;-47
2021/07/08 06:08:27;;;;;;;0.50;0.50;;;25.90;48.10;;;-147.20;100.00;58430.41;5116461;28;20047;-50
2021/07/08 06:10:53;;;;;;;0.50;0.50;;;25.90;48.10;;;-147.20;100.00;58430.41;5116258;28;20117;-53
2021/07/08 06:13:19;;;;;;;0.95;0.60;;;25.90;48.10;;;-147.20;100.00;58430.41;5115776;28;20047;-51
2021/07/08 06:15:45;;;;;;;1.48;0.63;;;26.00;48.10;;;-147.20;100.00;58430.41;5115989;28;20050;-51
2021/07/08 06:18:11;;;;;;;0.52;0.52;;;26.00;48.10;;;-147.20;100.00;58430.41;5115611;28;20048;-53
2021/07/08 06:20:36;;;;;;;0.70;0.70;;;26.00;48.00;;;-147.20;100.00;58430.41;5115665;28;20138;-53
2021/07/08 06:23:02;;;;;;;0.70;0.70;;;26.00;48.00;;;-147.20;100.00;58430.41;5115645;28;20532;-46
2021/07/08 06:25:30;;;;;;;0.52;0.52;;;26.10;48.10;;;-147.20;100.00;58430.41;5115644;28;20054;-51
2021/07/08 06:27:57;;;;;;;0.65;0.65;;;26.10;47.90;;;-147.20;100.00;58430.41;5115805;28;20055;-47
2021/07/08 06:30:23;;;;;;;0.75;0.70;;;26.20;47.80;;;-147.20;100.00;58430.41;5115599;28;20050;-51
2021/07/08 06:32:50;;;;;;;0.93;0.80;;;26.30;47.70;;;-147.20;100.00;58430.41;5097352;28;20440;-50
2021/07/08 06:35:21;;;;;;;0.60;0.60;;;26.20;47.60;;;-147.20;100.00;58430.41;5115572;28;20399;-48
2021/07/08 06:37:47;;;;;;;0.85;0.77;;;26.20;47.60;;;-147.20;100.00;58430.41;5097655;28;20044;-51
2021/07/08 06:40:16;;;;;;;0.98;0.98;;;26.20;47.60;;;-147.20;100.00;58430.41;5115136;28;20059;-52
2021/07/08 06:42:44;;;;;;;1.33;0.80;;;26.20;47.60;;;-147.20;100.00;58430.41;5115017;28;20092;-47
2021/07/08 06:45:15;;;;;;;0.95;0.77;;;26.20;47.60;;;-147.20;100.00;58430.41;5115617;28;20494;-50
2021/07/08 06:47:45;;;;;;;1.02;1.00;;;26.20;47.70;;;-147.20;100.00;58430.41;5115451;28;20040;-49
2021/07/08 06:50:12;;;;;;;0.80;0.80;;;26.20;47.70;;;-147.20;100.00;58430.41;5115736;28;20127;-48
2021/07/08 06:52:38;;;;;;;0.77;0.77;;;26.20;47.70;;;-147.20;100.00;58430.41;5115313;28;20062;-50
2021/07/08 06:55:05;;;;;;;1.85;0.90;;;26.20;47.80;;;-147.20;100.00;58430.41;5114915;28;20083;-51
2021/07/08 06:57:32;;;;;;;1.10;0.90;;;26.20;47.80;;;-147.20;100.00;58430.41;5115154;28;20044;-46
2021/07/08 06:59:57;;;;;;;5.85;1.33;;;26.20;47.80;;;-147.20;100.00;58430.41;5115311;28;20063;-51
2021/07/08 07:02:23;;;;;;;1.15;0.90;;;26.20;47.80;;;-147.20;100.00;58430.41;5115329;28;20051;-48
2021/07/08 07:04:49;;;;;;;1.15;0.95;;;26.20;47.90;;;-147.20;100.00;58430.41;5115033;28;20049;-51
2021/07/08 07:07:15;;;;;;;1.50;0.80;;;26.20;47.90;;;-147.20;100.00;58430.41;5115038;28;20177;-47
2021/07/08 07:09:42;;;;;;;0.88;0.80;;;26.30;47.90;;;-147.20;100.00;58430.41;5114961;28;20118;-49
2021/07/08 07:12:08;;;;;;;1.02;0.93;;;26.30;47.80;;;-147.20;100.00;58430.41;5114462;28;20047;-47
2021/07/08 07:14:34;;;;;;;0.90;0.90;;;26.30;47.70;;;-147.20;100.00;58430.41;5114889;28;20067;-51
2021/07/08 07:17:00;;;;;;;1.30;0.80;;;26.40;48.30;;;-147.20;100.00;58430.41;5114676;28;20483;-49
2021/07/08 07:19:27;;;;;;;1.23;0.90;;;26.40;47.60;;;-147.20;100.00;58430.41;5114894;28;20058;-52
2021/07/08 07:21:54;;;;;;;1.45;1.00;;;26.50;47.50;;;-147.20;100.00;58430.41;5114770;28;20043;-51
2021/07/08 07:24:21;;;;;;;1.98;1.20;;;26.50;47.40;;;-147.20;100.00;58430.41;5114828;28;20540;-50
2021/07/08 07:26:48;;;;;;;1.13;1.02;;;26.60;47.40;;;-147.20;100.00;58430.41;5114765;28;20051;-49
2021/07/08 07:29:14;;;;;;;2.10;1.10;;;26.60;47.30;;;-147.20;100.00;58430.41;5114753;28;20078;-48
2021/07/08 07:31:40;;;;;;;1.33;1.20;;;26.60;47.20;;;-147.20;100.00;58430.41;5115249;28;20047;-51
2021/07/08 07:34:07;;;;;;;1.10;1.00;;;26.70;47.20;;;-147.20;100.00;58430.41;5114688;28;20196;-50
2021/07/08 07:36:33;;;;;;;0.82;0.82;;;26.70;47.10;;;-147.20;100.00;58430.41;5114253;28;20044;-46
2021/07/08 07:38:59;;;;;;;1.35;0.95;;;26.70;47.60;;;-147.20;100.00;58430.41;5114999;28;20054;-48
2021/07/08 07:41:25;;;;;;;3.45;1.33;;;26.70;47.00;;;-147.20;100.00;58430.41;5114542;28;20047;-51
2021/07/08 07:43:50;;;;;;;1.58;1.25;;;26.80;47.10;;;-147.20;100.00;58430.41;5114486;28;20070;-50
2021/07/08 07:46:16;;;;;;;1.60;1.13;;;26.70;47.00;;;-147.20;100.00;58430.41;5114028;28;20051;-48
2021/07/08 07:48:43;;;;;;;1.48;1.10;;;26.80;47.00;;;-147.20;100.00;58430.41;5114463;28;20134;-45
2021/07/08 07:51:10;;;;;;;1.40;1.02;;;26.70;47.00;;;-147.20;100.00;58430.41;5114621;28;20093;-49
2021/07/08 07:53:35;;;;;;;0.88;0.80;;;26.80;47.00;;;-147.20;100.00;58430.41;5114365;28;20374;-48
2021/07/08 07:56:01;;;;;;;0.88;0.88;;;26.90;46.90;;;-147.20;100.00;58430.41;5114165;28;20063;-47
2021/07/08 07:58:27;;;;;;;1.30;1.10;;;26.90;46.80;;;-147.20;100.00;58430.41;5095874;28;20556;-51
2021/07/08 08:00:56;;;;;;;1.10;1.00;;;26.90;46.80;;;-147.20;100.00;58430.41;5114628;28;20494;-51
2021/07/08 08:03:22;;;;;;;1.70;1.00;;;26.90;46.70;;;-147.20;100.00;58430.41;5096076;28;20039;-46
2021/07/08 08:08:27;;;;;;;2.42;1.02;;;26.90;46.70;;;-147.20;100.00;58430.41;5114032;28;20502;-47
2021/07/08 08:08:43;;;;;;;1.48;0.93;;;26.90;46.70;;;-147.20;100.00;58430.41;5112924;28;20082;-50
2021/07/08 08:11:10;;;;;;;1.30;1.20;;;26.90;46.70;;;-147.20;100.00;58430.41;5113971;28;20081;-47
2021/07/08 08:13:37;;;;;;;0.90;0.90;;;26.90;46.60;;;-147.20;100.00;58430.41;5113839;28;20118;-47
2021/07/08 08:16:06;;;;;;;1.30;1.20;;;27.00;46.60;;;-147.20;100.00;58430.41;5114139;28;20059;-51
2021/07/08 08:18:33;;;;;;;1.10;1.00;;;27.10;46.70;;;-147.20;100.00;58430.41;5113768;28;20517;-52
2021/07/08 08:20:59;;;;;;;1.50;1.17;;;27.10;46.60;;;-147.20;100.00;58430.41;5113622;28;20052;-51
2021/07/08 08:23:25;;;;;;;1.20;1.10;;;27.10;46.50;;;-147.20;100.00;58430.41;5112902;28;20517;-51
2021/07/08 08:25:51;;;;;;;1.23;1.00;;;27.10;46.40;;;-147.20;100.00;58430.41;5114032;28;20055;-50
2021/07/08 08:28:17;;;;;;;1.27;0.98;;;27.20;46.40;;;-147.20;100.00;58430.41;5113707;28;20062;-52
2021/07/08 08:30:44;;;;;;;1.83;1.13;;;27.20;46.40;;;-147.20;100.00;58430.41;5113626;28;20047;-51
2021/07/08 08:33:11;;;;;;;2.05;1.13;;;27.30;46.40;;;-147.20;100.00;58430.41;5113976;28;20050;-54
2021/07/08 08:35:37;;;;;;;1.30;1.10;;;27.30;46.20;;;-147.20;100.00;58430.41;5113541;28;20047;-51
2021/07/08 08:38:03;;;;;;;1.20;1.05;;;27.30;46.00;;;-147.20;100.00;58430.41;5113686;28;20059;-49
2021/07/08 08:40:30;;;;;;;1.13;1.02;;;27.40;46.00;;;-147.20;100.00;58430.41;5113671;28;20096;-51
2021/07/08 08:42:56;;;;;;;2.22;1.63;;;27.40;46.00;;;-147.20;100.00;58430.41;5095666;28;20039;-54
2021/07/08 08:45:24;;;;;;;1.45;0.90;;;27.40;45.90;;;-147.20;100.00;58430.41;5095303;28;20047;-49
2021/07/08 08:47:58;;;;;;;1.45;1.30;;;27.50;45.90;;;-147.20;100.00;58430.41;5112398;28;20073;-51
2021/07/08 08:50:26;;;;;;;2.58;1.20;;;27.50;45.90;;;-147.20;100.00;58430.41;5113524;28;20040;-54
2021/07/08 08:52:53;;;;;;;1.88;1.20;;;27.50;45.90;;;-147.20;100.00;58430.41;5113409;28;20059;-52
2021/07/08 08:55:22;;;;;;;1.42;1.08;;;27.50;45.80;;;-147.20;100.00;58430.41;5113159;28;20054;-49
2021/07/08 08:57:48;;;;;;;1.73;1.10;;;27.50;45.80;;;-147.20;100.00;58430.41;5094917;28;20047;-53
2021/07/08 09:00:25;;;;;;;2.25;1.40;;;27.50;45.80;;;-147.20;100.00;58430.41;5112986;28;20058;-51
2021/07/08 09:03:06;;;;;;;2.05;1.10;;;27.50;45.80;;;-147.20;100.00;58430.41;5113836;28;20051;-53
2021/07/08 09:05:32;;;;;;;;;;;27.50;45.70;;;-147.20;100.00;58430.41;5114038;28;20127;-53
2021/07/08 09:08:27;;;;;;;2.53;1.17;;;27.60;45.80;;;-147.20;100.00;58430.41;5112957;28;19916;-53
2021/07/08 09:11:18;;;;;;;1.15;1.00;;;27.60;45.80;;;-147.20;100.00;58430.41;5073692;28;20043;-48
2021/07/08 09:13:56;;;;;;;1.40;1.30;;;27.60;45.70;;;-147.20;100.00;58430.41;5113368;28;20084;-51
2021/07/08 09:16:35;;;;;;;2.20;1.10;;;27.60;45.70;;;-147.20;100.00;58430.41;5095047;28;20044;-50
2021/07/08 09:19:13;;;;;;;2.47;1.30;;;27.60;45.70;;;-147.20;100.00;58430.41;5113606;28;20146;-50
2021/07/08 09:21:47;;;;;;;1.85;1.23;;;27.60;45.60;;;-147.20;100.00;58430.41;5112966;28;20078;-51
2021/07/08 09:24:34;;;;;;;1.40;1.20;;;27.60;45.60;;;-147.20;100.00;58430.41;5112892;28;20039;-50
2021/07/08 09:27:09;;;;;;;1.33;1.20;;;27.70;45.60;;;-147.20;100.00;58430.41;5112940;28;20099;-49
2021/07/08 09:29:44;;;;;;;2.17;1.20;;;27.70;45.60;;;-147.20;100.00;58430.41;5113060;28;20480;-48
2021/07/08 09:32:16;;;;;;;1.38;1.00;;;27.70;45.60;;;-147.20;100.00;58430.41;5095076;28;20047;-51
2021/07/08 09:34:47;;;;;;;1.67;1.20;;;27.70;45.50;;;-147.20;100.00;58430.41;5114319;28;20101;-48
2021/07/08 09:37:28;;;;;;;1.20;1.10;;;27.60;45.40;;;-147.20;100.00;58430.41;5116387;28;20112;-51
2021/07/08 09:39:59;;;;;;;1.60;1.47;;;27.70;45.60;;;-147.20;100.00;58430.41;5116235;28;20075;-53
2021/07/08 09:42:37;;;;;;;1.20;1.05;;;27.70;45.60;;;-147.20;100.00;58430.41;5096871;28;20062;-51
2021/07/08 09:45:08;;;;;;;3.13;1.25;;;27.70;45.50;;;-147.20;100.00;58430.41;5116141;28;20509;-49
2021/07/08 09:47:37;;;;;;;1.70;1.10;;;27.70;45.40;;;-147.20;100.00;58430.41;5116845;28;20135;-53
2021/07/08 09:50:05;;;;;;;2.13;1.30;;;27.70;45.40;;;-147.20;100.00;58430.41;5115762;28;20134;-46
2021/07/08 09:52:32;;;;;;;4.07;1.10;;;27.70;45.30;;;-147.20;100.00;58430.41;5116165;28;20054;-49
2021/07/08 09:57:47;;;;;;;2.83;1.42;;;27.70;45.40;;;-147.20;100.00;58430.41;5116165;28;20066;-53
2021/07/08 10:00:22;;;;;;;8.88;1.38;;;27.70;45.40;;;-147.20;100.00;58430.41;5115858;28;20055;-52
2021/07/08 10:02:57;;;;;;;1.63;1.13;;;27.70;45.40;;;-147.20;100.00;58430.41;5116323;28;20386;-50
2021/07/08 10:05:25;;;;;;;1.65;1.20;;;27.70;45.40;;;-147.20;100.00;58430.41;5097515;28;20597;-52
2021/07/08 10:07:52;;;;;;;3.25;1.27;;;27.70;45.30;;;-147.20;100.00;58430.41;5115896;28;20056;-49
2021/07/08 10:10:18;;;;;;;3.13;1.20;;;27.70;45.30;;;-147.20;100.00;58430.41;5115893;28;20075;-51